createdAt,value
2018-09-22T00:02:11.877Z,77.86
2018-09-22T00:04:40.856Z,77.57
2018-09-22T00:07:09.858Z,77.71
2018-09-22T00:09:38.842Z,77.93
2018-09-22T00:12:07.830Z,78.50
2018-09-22T00:14:36.798Z,77.81
2018-09-22T00:17:05.894Z,77.55
2018-09-22T00:19:34.942Z,78.35
2018-09-22T00:22:03.930Z,78.54
2018-09-22T00:24:32.906Z,78.17
2018-09-22T00:27:01.890Z,78.25
2018-09-22T00:29:30.897Z,78.07
2018-09-22T00:31:59.887Z,78.19
2018-09-22T00:34:29.090Z,78.00
2018-09-22T00:36:58.076Z,77.62
2018-09-22T00:39:27.042Z,77.31
2018-09-22T00:41:56.026Z,77.33
2018-09-22T00:44:25.046Z,77.01
2018-09-22T00:46:54.010Z,75.86
2018-09-22T00:49:23.097Z,75.82
2018-09-22T00:51:52.082Z,75.56
2018-09-22T00:54:21.079Z,73.73
2018-09-22T00:56:50.053Z,74.96
2018-09-22T00:59:19.214Z,73.08
2018-09-22T01:01:48.185Z,73.07
2018-09-22T01:04:17.181Z,72.41
2018-09-22T01:06:46.186Z,72.24
2018-09-22T01:09:15.176Z,71.69
2018-09-22T01:11:44.154Z,70.46
2018-09-22T01:14:13.135Z,70.44
2018-09-22T01:16:42.127Z,69.94
2018-09-22T01:19:11.109Z,69.30
2018-09-22T01:21:40.085Z,68.22
2018-09-22T01:24:09.070Z,69.96
2018-09-22T01:26:38.052Z,67.80
2018-09-22T01:29:07.049Z,68.58
2018-09-22T01:31:36.038Z,67.89
2018-09-22T01:34:05.021Z,67.61
2018-09-22T01:36:41.445Z,65.20
2018-09-22T01:39:11.177Z,66.22
2018-09-22T01:41:41.066Z,67.08
2018-09-22T01:44:10.148Z,66.35
2018-09-22T01:46:39.173Z,66.06
2018-09-22T01:49:08.245Z,67.25
2018-09-22T01:51:37.230Z,66.21
2018-09-22T01:54:06.221Z,66.04
2018-09-22T01:56:35.288Z,64.95
2018-09-22T01:59:04.294Z,66.07
2018-09-22T02:01:33.361Z,65.77
2018-09-22T02:04:02.366Z,65.34
2018-09-22T02:06:31.341Z,64.71
2018-09-22T02:09:00.364Z,65.56
2018-09-22T02:11:29.394Z,65.96
2018-09-22T02:13:58.360Z,65.63
2018-09-22T02:16:27.350Z,65.58
2018-09-22T02:18:56.341Z,66.87
2018-09-22T02:21:25.354Z,67.17
2018-09-22T02:23:54.335Z,66.72
2018-09-22T02:26:23.354Z,66.88
2018-09-22T02:28:52.343Z,67.06
2018-09-22T02:31:21.313Z,67.39
2018-09-22T02:33:50.287Z,67.68
2018-09-22T02:36:25.790Z,67.46
2018-09-22T02:38:54.771Z,68.36
2018-09-22T02:41:23.755Z,69.30
2018-09-22T02:43:52.782Z,71.43
2018-09-22T02:46:21.757Z,72.53
2018-09-22T02:48:50.734Z,72.99
2018-09-22T02:51:19.767Z,73.73
2018-09-22T02:53:48.749Z,74.22
2018-09-22T02:56:17.727Z,74.52
2018-09-22T02:58:46.722Z,74.29
2018-09-22T03:01:15.734Z,74.71
2018-09-22T03:03:44.672Z,74.01
2018-09-22T03:06:13.666Z,73.33
2018-09-22T03:08:42.687Z,72.76
2018-09-22T03:11:11.626Z,72.38
2018-09-22T03:13:40.650Z,72.68
2018-09-22T03:16:09.613Z,72.41
2018-09-22T03:18:38.638Z,72.96
2018-09-22T03:21:07.631Z,72.79
2018-09-22T03:23:36.606Z,72.86
2018-09-22T03:26:05.574Z,72.89
2018-09-22T03:28:34.546Z,72.79
2018-09-22T03:31:03.550Z,73.00
2018-09-22T03:33:32.510Z,73.52
2018-09-22T03:36:01.499Z,73.58
2018-09-22T03:38:30.470Z,73.23
2018-09-22T03:40:59.457Z,73.94
2018-09-22T03:43:28.433Z,73.66
2018-09-22T03:45:57.533Z,73.09
2018-09-22T03:48:26.498Z,73.39
2018-09-22T03:50:55.473Z,73.05
2018-09-22T03:53:24.837Z,72.43
2018-09-22T03:55:53.777Z,72.85
2018-09-22T03:58:22.747Z,72.03
2018-09-22T04:00:51.724Z,71.25
2018-09-22T04:03:20.725Z,71.98
2018-09-22T04:05:49.789Z,71.43
2018-09-22T04:08:18.770Z,71.75
2018-09-22T04:10:47.797Z,71.20
2018-09-22T04:13:16.753Z,71.98
2018-09-22T04:15:45.766Z,72.22
2018-09-22T04:18:14.732Z,71.82
2018-09-22T04:20:43.741Z,72.06
2018-09-22T04:23:12.713Z,72.04
2018-09-22T04:25:41.697Z,71.95
2018-09-22T04:28:10.670Z,72.01
2018-09-22T04:30:39.650Z,71.14
2018-09-22T04:33:08.631Z,71.16
2018-09-22T04:35:37.610Z,71.11
2018-09-22T04:38:06.582Z,71.60
2018-09-22T04:40:35.591Z,71.69
2018-09-22T04:43:04.558Z,71.37
2018-09-22T04:45:34.538Z,71.58
2018-09-22T04:48:03.523Z,71.15
2018-09-22T04:50:32.497Z,71.17
2018-09-22T04:53:01.477Z,71.20
2018-09-22T04:55:30.450Z,71.19
2018-09-22T04:57:59.418Z,71.03
2018-09-22T05:00:28.411Z,71.01
2018-09-22T05:02:57.391Z,70.96
2018-09-22T05:05:26.397Z,70.69
2018-09-22T05:07:55.461Z,70.81
2018-09-22T05:10:24.446Z,70.88
2018-09-22T05:12:53.446Z,70.65
2018-09-22T05:15:22.602Z,70.94
2018-09-22T05:17:51.577Z,70.67
2018-09-22T05:20:20.640Z,70.72
2018-09-22T05:22:49.606Z,70.59
2018-09-22T05:25:18.587Z,70.29
2018-09-22T05:27:47.565Z,70.89
2018-09-22T05:30:16.557Z,71.59
2018-09-22T05:32:45.607Z,71.43
2018-09-22T05:35:14.585Z,70.96
2018-09-22T05:37:43.666Z,70.42
2018-09-22T05:40:12.690Z,70.69
2018-09-22T05:42:41.750Z,71.21
2018-09-22T05:45:10.754Z,71.03
2018-09-22T05:47:39.741Z,70.38
2018-09-22T05:50:08.725Z,70.71
2018-09-22T05:52:37.754Z,70.53
2018-09-22T05:55:06.722Z,70.61
2018-09-22T05:57:35.814Z,71.68
2018-09-22T06:00:04.966Z,71.31
2018-09-22T06:02:33.946Z,71.36
2018-09-22T06:05:02.939Z,70.87
2018-09-22T06:07:31.941Z,70.99
2018-09-22T06:10:01.011Z,71.23
2018-09-22T06:12:30.245Z,70.13
2018-09-22T06:14:59.205Z,70.35
2018-09-22T06:17:28.222Z,69.89
2018-09-22T06:19:57.185Z,69.69
2018-09-22T06:22:26.168Z,70.48
2018-09-22T06:24:55.137Z,71.14
2018-09-22T06:27:24.171Z,70.42
2018-09-22T06:29:53.169Z,71.00
2018-09-22T06:32:22.162Z,69.57
2018-09-22T06:34:51.167Z,69.01
2018-09-22T06:37:20.151Z,69.19
2018-09-22T06:39:49.121Z,68.80
2018-09-22T06:42:18.109Z,68.14
2018-09-22T06:44:47.086Z,68.21
2018-09-22T06:47:16.079Z,68.53
2018-09-22T06:49:45.050Z,68.68
2018-09-22T06:52:14.062Z,68.20
2018-09-22T06:54:43.027Z,68.50
2018-09-22T06:57:11.982Z,68.04
2018-09-22T06:59:40.953Z,68.17
2018-09-22T07:02:09.937Z,67.90
2018-09-22T07:04:39.368Z,67.86
2018-09-22T07:07:09.243Z,67.80
2018-09-22T07:09:38.278Z,67.19
2018-09-22T07:12:07.373Z,67.68
2018-09-22T07:14:36.357Z,67.66
2018-09-22T07:17:05.339Z,66.96
2018-09-22T07:19:34.382Z,68.30
2018-09-22T07:22:08.499Z,67.09
2018-09-22T07:24:37.469Z,67.12
2018-09-22T07:27:06.450Z,65.76
2018-09-22T07:29:35.446Z,65.94
2018-09-22T07:32:04.443Z,66.51
2018-09-22T07:34:33.433Z,66.27
2018-09-22T07:37:02.521Z,66.19
2018-09-22T07:39:31.504Z,66.88
2018-09-22T07:42:00.469Z,65.66
2018-09-22T07:44:29.441Z,66.33
2018-09-22T07:46:58.445Z,66.74
2018-09-22T07:49:27.845Z,65.38
2018-09-22T07:51:56.885Z,65.62
2018-09-22T07:54:25.945Z,65.92
2018-09-22T07:56:54.979Z,66.81
2018-09-22T07:59:23.958Z,65.42
2018-09-22T08:01:52.981Z,65.00
2018-09-22T08:04:22.046Z,65.12
2018-09-22T08:06:51.054Z,64.77
2018-09-22T08:09:20.084Z,64.06
2018-09-22T08:11:49.226Z,64.51
2018-09-22T08:14:18.161Z,64.34
2018-09-22T08:16:47.429Z,63.86
2018-09-22T08:19:16.427Z,64.44
2018-09-22T08:21:45.413Z,63.86
2018-09-22T08:24:14.425Z,64.37
2018-09-22T08:26:43.497Z,63.27
2018-09-22T08:29:12.624Z,63.48
2018-09-22T08:31:41.690Z,63.17
2018-09-22T08:34:10.687Z,63.04
2018-09-22T08:36:39.846Z,62.23
2018-09-22T08:39:09.928Z,62.64
2018-09-22T08:41:38.938Z,62.20
2018-09-22T08:44:08.101Z,61.79
2018-09-22T08:46:37.325Z,61.55
2018-09-22T08:49:06.541Z,61.06
2018-09-22T08:51:35.760Z,60.95
2018-09-22T08:54:04.797Z,60.58
2018-09-22T08:56:33.774Z,60.29
2018-09-22T08:59:02.775Z,60.53
2018-09-22T09:01:31.762Z,60.12
2018-09-22T09:04:00.815Z,60.20
2018-09-22T09:06:29.815Z,59.72
2018-09-22T09:08:58.881Z,59.52
2018-09-22T09:11:27.974Z,59.46
2018-09-22T09:13:56.890Z,60.00
2018-09-22T09:16:25.870Z,59.25
2018-09-22T09:18:55.121Z,58.55
2018-09-22T09:21:24.106Z,57.66
2018-09-22T09:23:53.139Z,59.67
2018-09-22T09:26:22.186Z,60.28
2018-09-22T09:28:51.164Z,58.89
2018-09-22T09:31:20.174Z,58.08
2018-09-22T09:33:49.786Z,59.24
2018-09-22T09:36:19.159Z,59.14
2018-09-22T09:38:48.152Z,58.96
2018-09-22T09:41:17.146Z,57.69
2018-09-22T09:43:46.176Z,57.32
2018-09-22T09:46:15.114Z,57.22
2018-09-22T09:48:44.108Z,57.23
2018-09-22T09:51:13.089Z,57.63
2018-09-22T09:53:42.082Z,56.38
2018-09-22T09:56:11.097Z,56.52
2018-09-22T09:58:40.080Z,56.55
2018-09-22T10:01:09.154Z,55.56
2018-09-22T10:03:38.161Z,55.65
2018-09-22T10:06:07.229Z,55.89
2018-09-22T10:08:36.225Z,54.53
2018-09-22T10:11:05.370Z,54.81
2018-09-22T10:13:34.399Z,53.46
2018-09-22T10:16:03.390Z,54.61
2018-09-22T10:18:32.413Z,54.82
2018-09-22T10:21:01.397Z,54.67
2018-09-22T10:23:30.541Z,54.76
2018-09-22T10:25:59.538Z,53.61
2018-09-22T10:28:28.579Z,52.85
2018-09-22T10:30:57.550Z,52.94
2018-09-22T10:33:26.545Z,50.37
2018-09-22T10:35:55.803Z,49.35
2018-09-22T10:38:24.807Z,48.16
2018-09-22T10:40:53.781Z,47.75
2018-09-22T10:43:22.781Z,48.47
2018-09-22T10:45:51.757Z,48.02
2018-09-22T10:48:20.745Z,46.82
2018-09-22T10:50:49.784Z,46.91
2018-09-22T10:53:18.759Z,48.49
2018-09-22T10:55:47.771Z,47.74
2018-09-22T10:58:16.717Z,46.56
2018-09-22T11:00:45.718Z,45.71
2018-09-22T11:03:14.716Z,44.77
2018-09-22T11:05:43.705Z,45.64
2018-09-22T11:08:12.685Z,45.75
2018-09-22T11:10:41.701Z,45.82
2018-09-22T11:13:10.734Z,46.53
2018-09-22T11:15:39.690Z,47.23
2018-09-22T11:18:15.154Z,47.08
2018-09-22T11:20:44.161Z,46.78
2018-09-22T11:23:13.138Z,46.76
2018-09-22T11:25:42.121Z,46.21
2018-09-22T11:28:11.157Z,45.32
2018-09-22T11:30:40.142Z,43.80
2018-09-22T11:33:09.146Z,44.19
2018-09-22T11:35:38.129Z,44.44
2018-09-22T11:38:07.115Z,45.30
2018-09-22T11:40:36.097Z,46.03
2018-09-22T11:43:05.074Z,47.06
2018-09-22T11:45:34.061Z,45.91
2018-09-22T11:48:03.037Z,45.58
2018-09-22T11:50:32.101Z,44.94
2018-09-22T11:53:01.084Z,44.39
2018-09-22T11:55:30.071Z,45.30
2018-09-22T11:57:59.063Z,45.27
2018-09-22T12:00:28.060Z,45.78
2018-09-22T12:02:57.042Z,45.48
2018-09-22T12:05:26.040Z,45.02
2018-09-22T12:07:55.005Z,45.42
2018-09-22T12:10:24.006Z,45.97
2018-09-22T12:12:52.978Z,45.38
2018-09-22T12:15:21.974Z,45.15
2018-09-22T12:17:51.085Z,43.56
2018-09-22T12:20:20.078Z,45.60
2018-09-22T12:22:49.069Z,44.15
2018-09-22T12:25:18.086Z,45.28
2018-09-22T12:27:47.157Z,44.76
2018-09-22T12:30:16.166Z,44.89
2018-09-22T12:32:45.153Z,44.65
2018-09-22T12:35:14.190Z,44.32
2018-09-22T12:37:43.173Z,44.09
2018-09-22T12:40:12.219Z,45.17
2018-09-22T12:42:41.212Z,44.56
2018-09-22T12:45:10.208Z,43.25
2018-09-22T12:47:39.174Z,42.83
2018-09-22T12:50:08.189Z,42.39
2018-09-22T12:52:37.192Z,43.62
2018-09-22T12:55:06.181Z,42.78
2018-09-22T12:57:35.246Z,42.99
2018-09-22T13:00:04.263Z,43.63
2018-09-22T13:02:33.269Z,43.70
2018-09-22T13:05:02.270Z,42.25
2018-09-22T13:07:31.255Z,42.23
2018-09-22T13:10:00.632Z,42.32
2018-09-22T13:12:29.618Z,42.52
2018-09-22T13:14:58.667Z,41.82
2018-09-22T13:17:27.678Z,42.71
2018-09-22T13:19:57.419Z,42.64
2018-09-22T13:22:26.414Z,42.44
2018-09-22T13:24:55.389Z,42.53
2018-09-22T13:27:24.401Z,42.23
2018-09-22T13:29:53.382Z,41.75
2018-09-22T13:32:22.373Z,40.26
2018-09-22T13:34:51.377Z,40.07
2018-09-22T13:37:20.417Z,38.92
2018-09-22T13:39:49.326Z,39.88
2018-09-22T13:42:18.538Z,40.76
2018-09-22T13:44:47.517Z,41.18
2018-09-22T13:47:16.527Z,40.64
2018-09-22T13:49:45.492Z,39.86
2018-09-22T13:52:14.482Z,39.45
2018-09-22T13:54:43.464Z,38.72
2018-09-22T13:57:12.450Z,39.63
2018-09-22T13:59:41.437Z,39.83
2018-09-22T14:02:10.533Z,40.43
2018-09-22T14:04:39.506Z,39.64
2018-09-22T14:07:08.521Z,39.85
2018-09-22T14:09:37.505Z,39.19
2018-09-22T14:12:06.757Z,39.34
2018-09-22T14:14:35.815Z,40.30
2018-09-22T14:17:04.874Z,40.15
2018-09-22T14:19:33.846Z,39.35
2018-09-22T14:22:02.964Z,39.59
2018-09-22T14:24:31.938Z,39.75
2018-09-22T14:27:01.002Z,39.68
2018-09-22T14:29:30.041Z,40.01
2018-09-22T14:31:58.981Z,39.20
2018-09-22T14:34:27.961Z,38.82
2018-09-22T14:36:56.997Z,39.34
2018-09-22T14:39:25.970Z,37.83
2018-09-22T14:41:54.964Z,38.42
2018-09-22T14:44:24.002Z,38.40
2018-09-22T14:46:52.986Z,38.59
2018-09-22T14:49:22.015Z,38.69
2018-09-22T14:51:51.002Z,38.42
2018-09-22T14:54:20.001Z,39.14
2018-09-22T14:56:48.977Z,39.21
2018-09-22T14:59:18.014Z,40.07
2018-09-22T15:01:46.998Z,39.40
2018-09-22T15:04:15.986Z,38.92
2018-09-22T15:06:44.982Z,39.55
2018-09-22T15:09:13.995Z,39.34
2018-09-22T15:11:42.986Z,39.29
2018-09-22T15:14:11.965Z,39.47
2018-09-22T15:16:40.958Z,40.52
2018-09-22T15:19:09.945Z,39.54
2018-09-22T15:21:38.934Z,40.12
2018-09-22T15:24:07.930Z,40.68
2018-09-22T15:26:36.921Z,41.39
2018-09-22T15:29:05.960Z,40.24
2018-09-22T15:31:35.017Z,40.28
2018-09-22T15:34:03.966Z,40.03
2018-09-22T15:36:32.975Z,41.35
2018-09-22T15:39:01.981Z,40.52
2018-09-22T15:41:31.082Z,40.56
2018-09-22T15:44:00.130Z,41.20
2018-09-22T15:46:29.148Z,41.58
2018-09-22T15:48:58.129Z,42.13
2018-09-22T15:51:28.256Z,41.00
2018-09-22T15:53:58.118Z,42.10
2018-09-22T15:56:27.105Z,41.75
2018-09-22T15:58:56.120Z,42.02
2018-09-22T16:01:25.097Z,42.20
2018-09-22T16:03:54.098Z,42.09
2018-09-22T16:06:23.089Z,41.29
2018-09-22T16:08:52.989Z,41.84
2018-09-22T16:11:21.958Z,42.13
2018-09-22T16:13:50.954Z,42.11
2018-09-22T16:16:19.986Z,42.25
2018-09-22T16:18:48.981Z,42.49
2018-09-22T16:21:17.965Z,42.54
2018-09-22T16:23:46.999Z,43.92
2018-09-22T16:26:15.973Z,43.69
2018-09-22T16:28:44.970Z,44.68
2018-09-22T16:31:13.949Z,44.42
2018-09-22T16:33:42.938Z,43.55
2018-09-22T16:36:11.929Z,43.48
2018-09-22T16:38:41.036Z,43.42
2018-09-22T16:41:10.070Z,42.96
2018-09-22T16:43:39.625Z,42.59
2018-09-22T16:46:08.659Z,42.84
2018-09-22T16:48:37.715Z,43.29
2018-09-22T16:51:06.645Z,43.00
2018-09-22T16:53:35.633Z,43.40
2018-09-22T16:56:04.646Z,43.10
2018-09-22T16:58:33.700Z,44.29
2018-09-22T17:01:02.619Z,44.40
2018-09-22T17:03:31.601Z,44.17
2018-09-22T17:06:00.579Z,45.95
2018-09-22T17:08:29.571Z,45.03
2018-09-22T17:10:58.536Z,46.35
2018-09-22T17:13:27.569Z,46.53
2018-09-22T17:15:56.539Z,45.81
2018-09-22T17:18:25.558Z,45.45
2018-09-22T17:20:54.538Z,46.29
2018-09-22T17:23:23.533Z,46.71
2018-09-22T17:25:52.518Z,46.05
2018-09-22T17:28:21.522Z,46.37
2018-09-22T17:30:50.758Z,45.42
2018-09-22T17:33:19.796Z,45.54
2018-09-22T17:35:48.761Z,47.24
2018-09-22T17:38:17.746Z,47.77
2018-09-22T17:40:46.724Z,47.86
2018-09-22T17:43:15.781Z,50.15
2018-09-22T17:45:44.702Z,52.60
2018-09-22T17:48:13.701Z,60.98
2018-09-22T17:50:42.669Z,64.38
2018-09-22T17:53:11.664Z,68.68
2018-09-22T17:55:41.014Z,70.28
2018-09-22T17:58:10.003Z,73.60
2018-09-22T18:00:39.002Z,73.24
2018-09-22T18:03:08.009Z,74.41
2018-09-22T18:05:36.989Z,77.43
2018-09-22T18:08:06.094Z,73.64
2018-09-22T18:10:35.078Z,68.38
2018-09-22T18:13:04.071Z,74.42
2018-09-22T18:15:33.134Z,76.15
2018-09-22T18:18:02.122Z,75.54
2018-09-22T18:20:31.138Z,78.51
2018-09-22T18:23:00.133Z,79.47
2018-09-22T18:25:29.135Z,81.39
2018-09-22T18:27:58.128Z,81.50
2018-09-22T18:30:27.152Z,82.04
2018-09-22T18:32:56.133Z,83.09
2018-09-22T18:35:25.122Z,83.38
2018-09-22T18:37:54.092Z,83.73
2018-09-22T18:40:23.183Z,84.22
2018-09-22T18:42:52.146Z,83.75
2018-09-22T18:45:21.134Z,84.64
2018-09-22T18:47:50.113Z,85.00
2018-09-22T18:50:19.085Z,84.18
2018-09-22T18:52:48.069Z,83.89
2018-09-22T18:55:17.193Z,84.68
2018-09-22T18:57:46.189Z,84.15
2018-09-22T19:00:15.198Z,84.68
2018-09-22T19:02:44.209Z,84.36
2018-09-22T19:05:13.201Z,84.45
2018-09-22T19:07:42.523Z,84.31
2018-09-22T19:10:11.511Z,83.55
2018-09-22T19:12:40.585Z,83.83
2018-09-22T19:15:44.417Z,83.60
2018-09-22T19:19:16.615Z,83.24
2018-09-22T19:21:53.954Z,82.64
2018-09-22T19:24:26.921Z,82.10
2018-09-22T19:27:00.697Z,82.42
2018-09-22T19:29:34.355Z,82.93
2018-09-22T19:32:21.669Z,82.12
2018-09-22T19:34:54.850Z,82.54
2018-09-22T19:37:27.354Z,82.69
2018-09-22T19:40:14.582Z,82.82
2018-09-22T19:42:48.390Z,83.95
2018-09-22T19:45:20.582Z,83.75
2018-09-22T19:47:59.193Z,84.16
2018-09-22T19:50:32.865Z,84.16
2018-09-22T19:53:01.890Z,84.44
2018-09-22T19:55:30.893Z,85.09
2018-09-22T19:57:59.970Z,85.43
2018-09-22T20:00:28.871Z,84.55
2018-09-22T20:02:57.859Z,84.51
2018-09-22T20:05:26.840Z,84.85
2018-09-22T20:07:55.814Z,84.23
2018-09-22T20:10:24.790Z,84.01
2018-09-22T20:12:53.764Z,84.01
2018-09-22T20:15:22.742Z,83.81
2018-09-22T20:17:51.826Z,84.47
2018-09-22T20:20:20.808Z,84.71
2018-09-22T20:22:49.794Z,84.72
2018-09-22T20:25:18.773Z,84.62
2018-09-22T20:27:47.789Z,84.33
2018-09-22T20:30:16.789Z,83.90
2018-09-22T20:32:45.837Z,84.42
2018-09-22T20:35:14.809Z,84.74
2018-09-22T20:37:44.377Z,84.21
2018-09-22T20:40:13.346Z,84.08
2018-09-22T20:42:42.422Z,84.96
2018-09-22T20:45:12.408Z,85.34
2018-09-22T20:47:41.470Z,85.22
2018-09-22T20:50:10.582Z,85.41
2018-09-22T20:52:39.653Z,85.12
2018-09-22T20:55:08.621Z,85.89
2018-09-22T20:57:37.613Z,85.34
2018-09-22T21:00:07.699Z,85.45
2018-09-22T21:02:36.711Z,85.96
2018-09-22T21:05:05.702Z,85.98
2018-09-22T21:07:35.006Z,85.54
2018-09-22T21:10:04.137Z,85.96
2018-09-22T21:12:33.131Z,85.31
2018-09-22T21:15:02.102Z,85.08
2018-09-22T21:17:31.098Z,85.39
2018-09-22T21:20:00.075Z,85.72
2018-09-22T21:22:29.066Z,85.92
2018-09-22T21:24:58.154Z,85.90
2018-09-22T21:27:27.178Z,86.25
2018-09-22T21:29:56.154Z,86.33
2018-09-22T21:32:25.130Z,85.56
2018-09-22T21:34:54.104Z,85.51
2018-09-22T21:37:23.089Z,85.05
2018-09-22T21:39:52.057Z,85.09
2018-09-22T21:42:21.166Z,84.81
2018-09-22T21:44:50.158Z,85.60
2018-09-22T21:47:19.138Z,85.23
2018-09-22T21:49:48.510Z,85.16
2018-09-22T21:52:17.526Z,85.33
2018-09-22T21:54:46.542Z,84.91
2018-09-22T21:57:15.513Z,84.56
2018-09-22T21:59:44.832Z,83.86
2018-09-22T22:02:13.894Z,83.74
2018-09-22T22:04:42.861Z,84.74
2018-09-22T22:07:11.849Z,83.28
2018-09-22T22:09:40.824Z,84.01
2018-09-22T22:12:09.802Z,83.36
2018-09-22T22:14:38.790Z,84.14
2018-09-22T22:17:07.781Z,83.00
2018-09-22T22:19:36.773Z,83.71
2018-09-22T22:22:05.832Z,83.85
2018-09-22T22:24:34.946Z,84.97
2018-09-22T22:27:03.995Z,84.53
2018-09-22T22:29:32.969Z,84.54
2018-09-22T22:32:02.145Z,84.69
2018-09-22T22:34:31.230Z,84.99
2018-09-22T22:37:00.274Z,85.81
2018-09-22T22:39:29.250Z,85.75
2018-09-22T22:41:58.281Z,85.68
2018-09-22T22:44:27.316Z,86.25
2018-09-22T22:46:56.244Z,85.39
2018-09-22T22:49:25.251Z,85.25
2018-09-22T22:51:54.230Z,83.96
2018-09-22T22:54:23.261Z,84.25
2018-09-22T22:56:52.273Z,84.85
2018-09-22T22:59:21.257Z,85.38
2018-09-22T23:01:50.341Z,85.59
2018-09-22T23:04:19.325Z,84.91
2018-09-22T23:06:48.406Z,85.87
2018-09-22T23:09:17.393Z,86.06
2018-09-22T23:11:46.581Z,85.63
2018-09-22T23:14:15.555Z,85.25
2018-09-22T23:16:44.513Z,85.84
2018-09-22T23:19:13.513Z,85.78
2018-09-22T23:21:42.482Z,86.65
2018-09-22T23:24:11.469Z,86.26
2018-09-22T23:26:40.438Z,85.39
2018-09-22T23:29:09.422Z,84.82
2018-09-22T23:31:38.486Z,83.30
2018-09-22T23:34:07.468Z,83.69
2018-09-22T23:36:36.438Z,83.63
2018-09-22T23:39:07.329Z,84.47
2018-09-22T23:41:36.306Z,84.70
2018-09-22T23:44:05.301Z,84.57
2018-09-22T23:46:34.281Z,84.85
2018-09-22T23:49:03.277Z,84.03
2018-09-22T23:51:32.486Z,84.60
2018-09-22T23:54:01.470Z,83.78
2018-09-22T23:56:30.486Z,83.25
2018-09-22T23:58:59.481Z,83.92
